createdAt,value
2022-10-30T00:00:13.659Z,96833.41
2022-10-30T00:02:42.071Z,96832.88
2022-10-30T00:05:11.742Z,96822.16
2022-10-30T00:07:39.905Z,96831.19
2022-10-30T00:10:09.325Z,96831.75
2022-10-30T00:12:37.733Z,96826.97
2022-10-30T00:15:06.954Z,96824.25
2022-10-30T00:17:35.455Z,96838.50
2022-10-30T00:20:03.855Z,96829.97
2022-10-30T00:22:33.464Z,96829.06
2022-10-30T00:25:01.697Z,96830.06
2022-10-30T00:27:29.890Z,96835.09
2022-10-30T00:29:58.074Z,96836.81
2022-10-30T00:32:26.412Z,96824.94
2022-10-30T00:34:54.699Z,96824.19
2022-10-30T00:37:22.989Z,96831.69
2022-10-30T00:39:52.578Z,96824.94
2022-10-30T00:42:20.856Z,96827.94
2022-10-30T00:44:50.563Z,96829.19
2022-10-30T00:47:21.613Z,96820.44
2022-10-30T00:49:56.837Z,96823.22
2022-10-30T00:52:27.421Z,96826.06
2022-10-30T00:54:57.329Z,96811.00
2022-10-30T00:57:25.700Z,96819.47
2022-10-30T00:59:53.888Z,96821.44
2022-10-30T01:02:22.805Z,96818.13
2022-10-30T01:04:52.463Z,96817.13
2022-10-30T01:07:20.709Z,96825.53
2022-10-30T01:09:49.010Z,96817.28
2022-10-30T01:12:18.797Z,96811.97
2022-10-30T01:14:50.968Z,96806.78
2022-10-30T01:17:33.062Z,96808.75
2022-10-30T01:20:13.559Z,96811.25
2022-10-30T01:22:53.894Z,96816.16
2022-10-30T01:25:35.502Z,96809.66
2022-10-30T01:28:15.177Z,96811.78
2022-10-30T01:30:52.042Z,96810.84
2022-10-30T01:33:29.460Z,96808.44
2022-10-30T01:36:02.785Z,96808.19
2022-10-30T01:38:34.520Z,96814.09
2022-10-30T01:41:02.864Z,96805.91
2022-10-30T01:43:32.936Z,96808.22
2022-10-30T01:46:14.380Z,96804.38
2022-10-30T01:48:59.915Z,96807.38
2022-10-30T01:51:39.135Z,96814.03
2022-10-30T01:54:12.717Z,96816.72
2022-10-30T01:56:47.056Z,96813.44
2022-10-30T01:59:18.530Z,96810.50
2022-10-30T02:01:47.085Z,96808.97
2022-10-30T02:04:15.539Z,96813.91
2022-10-30T02:06:43.794Z,96810.69
2022-10-30T02:09:12.396Z,96804.72
2022-10-30T02:11:40.733Z,96807.50
2022-10-30T02:14:10.203Z,96809.47
2022-10-30T02:16:44.025Z,96810.94
2022-10-30T02:19:12.247Z,96818.06
2022-10-30T02:21:41.925Z,96804.66
2022-10-30T02:24:10.230Z,96810.16
2022-10-30T02:26:38.948Z,96819.22
2022-10-30T02:29:07.295Z,96812.31
2022-10-30T02:31:35.482Z,96810.63
2022-10-30T02:34:03.716Z,96805.44
2022-10-30T02:36:32.002Z,96815.03
2022-10-30T02:39:01.860Z,96807.25
2022-10-30T02:41:30.361Z,96806.88
2022-10-30T02:43:58.681Z,96808.94
2022-10-30T02:46:27.028Z,96809.13
2022-10-30T02:48:55.403Z,96801.94
2022-10-30T02:51:23.707Z,96808.09
2022-10-30T02:53:51.928Z,96808.88
2022-10-30T02:56:21.515Z,96798.31
2022-10-30T02:58:49.817Z,96805.78
2022-10-30T03:01:19.570Z,96803.81
2022-10-30T03:03:48.081Z,96803.59
2022-10-30T03:06:17.442Z,96801.78
2022-10-30T03:08:45.793Z,96806.63
2022-10-30T03:11:16.201Z,96803.44
2022-10-30T03:13:47.353Z,96796.63
2022-10-30T03:16:18.551Z,96800.47
2022-10-30T03:18:47.114Z,96799.97
2022-10-30T03:21:17.576Z,96804.59
2022-10-30T03:23:46.241Z,96801.63
2022-10-30T03:26:14.593Z,96793.16
2022-10-30T03:28:42.849Z,96796.81
2022-10-30T03:31:14.402Z,96789.66
2022-10-30T03:33:43.491Z,96794.81
2022-10-30T03:36:13.676Z,96791.09
2022-10-30T03:38:42.203Z,96781.34
2022-10-30T03:41:10.497Z,96788.16
2022-10-30T03:43:38.885Z,96788.44
2022-10-30T03:46:07.132Z,96798.19
2022-10-30T03:48:36.711Z,96809.00
2022-10-30T03:51:05.092Z,96804.25
2022-10-30T03:53:33.376Z,96802.09
2022-10-30T03:56:02.926Z,96814.78
2022-10-30T03:58:31.260Z,96813.16
2022-10-30T04:01:02.498Z,96811.00
2022-10-30T04:03:30.897Z,96811.09
2022-10-30T04:06:00.552Z,96815.41
2022-10-30T04:08:28.770Z,96803.84
2022-10-30T04:10:57.109Z,96808.38
2022-10-30T04:13:25.718Z,96808.28
2022-10-30T04:15:57.929Z,96808.66
2022-10-30T04:18:26.878Z,96803.66
2022-10-30T04:20:55.356Z,96807.75
2022-10-30T04:23:24.999Z,96793.97
2022-10-30T04:25:53.164Z,96798.25
2022-10-30T04:28:22.071Z,96802.56
2022-10-30T04:30:50.289Z,96807.94
2022-10-30T04:33:18.479Z,96796.84
2022-10-30T04:35:46.745Z,96800.78
2022-10-30T04:38:15.997Z,96805.00
2022-10-30T04:40:45.686Z,96802.38
2022-10-30T04:43:14.543Z,96804.41
2022-10-30T04:45:42.877Z,96797.72
2022-10-30T04:48:13.080Z,96794.91
2022-10-30T04:50:41.615Z,96794.44
2022-10-30T04:53:18.459Z,96798.75
2022-10-30T04:55:48.108Z,96802.19
2022-10-30T04:58:16.296Z,96791.88
2022-10-30T05:00:44.528Z,96795.97
2022-10-30T05:03:21.513Z,96797.75
2022-10-30T05:05:50.247Z,96792.09
2022-10-30T05:08:18.582Z,96789.28
2022-10-30T05:10:48.204Z,96781.75
2022-10-30T05:13:16.876Z,96787.25
2022-10-30T05:15:45.276Z,96779.81
2022-10-30T05:18:13.649Z,96785.03
2022-10-30T05:20:41.993Z,96774.50
2022-10-30T05:23:10.343Z,96781.66
2022-10-30T05:25:38.904Z,96775.22
2022-10-30T05:28:08.944Z,96774.50
2022-10-30T05:30:37.258Z,96785.53
2022-10-30T05:33:07.430Z,96770.53
2022-10-30T05:35:36.273Z,96765.00
2022-10-30T05:38:06.624Z,96772.84
2022-10-30T05:40:35.572Z,96764.69
2022-10-30T05:43:04.303Z,96764.94
2022-10-30T05:45:33.930Z,96758.84
2022-10-30T05:48:03.764Z,96753.22
2022-10-30T05:50:32.467Z,96756.88
2022-10-30T05:53:02.467Z,96759.91
2022-10-30T05:55:30.793Z,96761.09
2022-10-30T05:57:59.792Z,96756.81
2022-10-30T06:00:29.694Z,96763.59
2022-10-30T06:03:02.867Z,96765.31
2022-10-30T06:05:32.993Z,96763.53
2022-10-30T06:08:01.658Z,96766.19
2022-10-30T06:10:30.365Z,96764.06
2022-10-30T06:13:00.049Z,96761.91
2022-10-30T06:15:29.639Z,96777.63
2022-10-30T06:17:58.454Z,96780.50
2022-10-30T06:20:29.758Z,96783.06
2022-10-30T06:22:58.453Z,96793.44
2022-10-30T06:25:27.163Z,96783.84
2022-10-30T06:27:55.517Z,96780.66
2022-10-30T06:30:24.174Z,96781.16
2022-10-30T06:32:57.697Z,96785.69
2022-10-30T06:35:26.172Z,96784.88
2022-10-30T06:37:56.326Z,96781.34
2022-10-30T06:40:24.703Z,96776.56
2022-10-30T06:42:54.658Z,96767.03
2022-10-30T06:45:24.419Z,96766.81
2022-10-30T06:47:52.775Z,96767.75
2022-10-30T06:50:22.530Z,96766.13
2022-10-30T06:52:50.758Z,96762.56
2022-10-30T06:55:20.550Z,96764.28
2022-10-30T06:57:54.754Z,96762.13
2022-10-30T07:00:23.287Z,96764.91
2022-10-30T07:02:59.338Z,96761.41
2022-10-30T07:05:28.050Z,96766.91
2022-10-30T07:07:57.956Z,96765.88
2022-10-30T07:10:27.553Z,96765.84
2022-10-30T07:12:57.199Z,96762.88
2022-10-30T07:15:25.880Z,96769.94
2022-10-30T07:17:56.158Z,96769.03
2022-10-30T07:20:24.607Z,96774.31
2022-10-30T07:22:52.739Z,96785.19
2022-10-30T07:25:21.317Z,96785.44
2022-10-30T07:27:52.047Z,96783.50
2022-10-30T07:30:22.009Z,96784.97
2022-10-30T07:32:58.476Z,96786.53
2022-10-30T07:35:27.272Z,96794.88
2022-10-30T07:37:56.055Z,96796.53
2022-10-30T07:40:24.445Z,96800.66
2022-10-30T07:42:58.771Z,96803.81
2022-10-30T07:45:28.105Z,96806.13
2022-10-30T07:47:57.263Z,96804.22
2022-10-30T07:50:26.215Z,96797.19
2022-10-30T07:52:54.533Z,96799.00
2022-10-30T07:55:22.810Z,96803.81
2022-10-30T07:57:51.468Z,96799.53
2022-10-30T08:00:21.532Z,96798.13
2022-10-30T08:02:50.849Z,96798.53
2022-10-30T08:05:19.358Z,96809.78
2022-10-30T08:07:48.155Z,96799.19
2022-10-30T08:10:16.719Z,96798.47
2022-10-30T08:12:45.833Z,96804.22
2022-10-30T08:15:14.230Z,96808.47
2022-10-30T08:17:44.560Z,96800.06
2022-10-30T08:20:13.921Z,96802.09
2022-10-30T08:22:46.543Z,96800.31
2022-10-30T08:25:14.976Z,96793.16
2022-10-30T08:27:51.333Z,96792.78
2022-10-30T08:30:20.082Z,96793.38
2022-10-30T08:32:49.856Z,96795.69
2022-10-30T08:35:19.979Z,96793.59
2022-10-30T08:37:48.379Z,96795.28
2022-10-30T08:40:16.924Z,96789.78
2022-10-30T08:42:51.711Z,96795.34
2022-10-30T08:45:20.759Z,96792.03
2022-10-30T08:47:57.860Z,96796.78
2022-10-30T08:50:26.566Z,96790.78
2022-10-30T08:52:54.963Z,96794.94
2022-10-30T08:55:23.458Z,96792.44
2022-10-30T08:57:51.755Z,96785.09
2022-10-30T09:00:20.059Z,96787.28
2022-10-30T09:02:48.311Z,96788.41
2022-10-30T09:05:18.275Z,96784.66
2022-10-30T09:07:46.673Z,96785.25
2022-10-30T09:10:15.489Z,96783.31
2022-10-30T09:12:43.793Z,96780.84
2022-10-30T09:15:12.012Z,96781.31
2022-10-30T09:17:40.402Z,96777.50
2022-10-30T09:20:09.454Z,96774.94
2022-10-30T09:22:43.259Z,96781.13
2022-10-30T09:25:11.581Z,96789.72
2022-10-30T09:27:39.878Z,96788.66
2022-10-30T09:30:09.321Z,96787.34
2022-10-30T09:32:37.634Z,96775.50
2022-10-30T09:35:06.651Z,96785.38
2022-10-30T09:37:35.790Z,96778.66
2022-10-30T09:40:06.460Z,96777.44
2022-10-30T09:42:44.848Z,96776.53
2022-10-30T09:45:30.112Z,96772.44
2022-10-30T09:48:09.481Z,96790.56
2022-10-30T09:50:44.181Z,96786.97
2022-10-30T09:53:17.741Z,96786.13
2022-10-30T09:55:52.895Z,96779.44
2022-10-30T09:58:25.993Z,96781.16
2022-10-30T10:01:06.987Z,96778.75
2022-10-30T10:03:43.194Z,96782.84
2022-10-30T10:06:14.269Z,96780.59
2022-10-30T10:08:47.411Z,96779.97
2022-10-30T10:11:19.611Z,96774.81
2022-10-30T10:13:50.882Z,96774.47
2022-10-30T10:16:20.943Z,96773.44
2022-10-30T10:18:50.405Z,96779.97
2022-10-30T10:21:25.485Z,96776.84
2022-10-30T10:23:56.230Z,96776.03
2022-10-30T10:26:46.787Z,96780.13
2022-10-30T10:29:20.560Z,96778.72
2022-10-30T10:31:56.028Z,96778.38
2022-10-30T10:34:40.044Z,96776.84
2022-10-30T10:37:14.488Z,96783.19
2022-10-30T10:39:57.037Z,96774.34
2022-10-30T10:42:34.148Z,96775.91
2022-10-30T10:45:18.333Z,96772.22
2022-10-30T10:48:16.896Z,96772.47
2022-10-30T10:50:49.513Z,96771.41
2022-10-30T10:53:23.017Z,96769.25
2022-10-30T10:55:54.993Z,96769.44
2022-10-30T10:58:28.609Z,96769.88
2022-10-30T11:00:57.802Z,96765.84
2022-10-30T11:03:30.816Z,96749.53
2022-10-30T11:06:02.001Z,96755.03
2022-10-30T11:08:31.571Z,96760.63
2022-10-30T11:11:01.111Z,96762.22
2022-10-30T11:13:32.355Z,96749.84
2022-10-30T11:16:07.980Z,96747.44
2022-10-30T11:18:36.278Z,96746.28
2022-10-30T11:21:08.406Z,96741.47
2022-10-30T11:23:42.091Z,96744.91
2022-10-30T11:26:28.402Z,96750.22
2022-10-30T11:29:00.424Z,96742.94
2022-10-30T11:31:34.755Z,96734.38
2022-10-30T11:34:21.628Z,96731.88
2022-10-30T11:36:51.395Z,96734.72
2022-10-30T11:39:21.067Z,96729.41
2022-10-30T11:41:55.708Z,96730.38
2022-10-30T11:44:27.781Z,96723.38
2022-10-30T11:46:56.591Z,96719.50
2022-10-30T11:49:32.675Z,96722.41
2022-10-30T11:52:01.299Z,96719.78
2022-10-30T11:54:29.718Z,96710.59
2022-10-30T11:56:59.900Z,96716.63
2022-10-30T11:59:29.621Z,96708.34
2022-10-30T12:02:03.619Z,96709.06
2022-10-30T12:04:33.208Z,96708.66
2022-10-30T12:07:19.985Z,96703.72
2022-10-30T12:09:48.957Z,96695.16
2022-10-30T12:12:23.923Z,96693.44
2022-10-30T12:14:54.045Z,96688.78
2022-10-30T12:17:22.966Z,96687.03
2022-10-30T12:19:52.515Z,96691.72
2022-10-30T12:22:30.283Z,96692.78
2022-10-30T12:24:59.837Z,96682.66
2022-10-30T12:27:28.479Z,96686.81
2022-10-30T12:30:18.009Z,96684.41
2022-10-30T12:32:50.768Z,96678.28
2022-10-30T12:35:23.949Z,96678.09
2022-10-30T12:37:54.704Z,96678.06
2022-10-30T12:40:25.804Z,96672.66
2022-10-30T12:42:58.403Z,96674.06
2022-10-30T12:45:32.307Z,96667.63
2022-10-30T12:48:04.560Z,96671.38
2022-10-30T12:50:38.200Z,96670.06
2022-10-30T12:53:08.795Z,96657.44
2022-10-30T12:55:39.308Z,96667.25
2022-10-30T12:58:17.866Z,96666.13
2022-10-30T13:00:54.452Z,96671.13
2022-10-30T13:03:27.469Z,96665.47
2022-10-30T13:05:57.977Z,96660.22
2022-10-30T13:08:29.905Z,96660.13
2022-10-30T13:11:04.203Z,96654.91
2022-10-30T13:13:36.909Z,96653.56
2022-10-30T13:16:09.851Z,96648.66
2022-10-30T13:18:38.068Z,96652.66
2022-10-30T13:21:20.474Z,96647.00
2022-10-30T13:23:53.032Z,96647.09
2022-10-30T13:26:27.813Z,96643.88
2022-10-30T13:29:02.466Z,96647.66
2022-10-30T13:31:39.949Z,96647.78
2022-10-30T13:34:28.323Z,96646.00
2022-10-30T13:37:01.693Z,96644.50
2022-10-30T13:39:33.418Z,96641.59
2022-10-30T13:42:15.929Z,96648.78
2022-10-30T13:44:50.164Z,96648.06
2022-10-30T13:47:28.166Z,96639.34
2022-10-30T13:50:07.416Z,96641.38
2022-10-30T13:52:37.471Z,96649.47
2022-10-30T13:55:11.929Z,96648.13
2022-10-30T13:57:44.499Z,96648.63
2022-10-30T14:00:16.924Z,96645.91
2022-10-30T14:03:06.812Z,96644.84
2022-10-30T14:05:40.066Z,96645.81
2022-10-30T14:08:13.604Z,96648.69
2022-10-30T14:10:46.764Z,96640.97
2022-10-30T14:13:27.010Z,96646.56
2022-10-30T14:15:56.363Z,96649.97
2022-10-30T14:18:44.619Z,96644.81
2022-10-30T14:21:39.800Z,96646.41
2022-10-30T14:24:17.025Z,96645.53
2022-10-30T14:26:52.600Z,96644.03
2022-10-30T14:29:32.973Z,96641.38
2022-10-30T14:32:01.351Z,96647.13
2022-10-30T14:34:43.912Z,96648.16
2022-10-30T14:37:12.757Z,96641.97
2022-10-30T14:39:41.910Z,96639.38
2022-10-30T14:42:15.176Z,96642.09
2022-10-30T14:44:52.334Z,96644.44
2022-10-30T14:47:54.994Z,96643.38
2022-10-30T14:50:43.657Z,96646.47
2022-10-30T14:53:22.706Z,96655.53
2022-10-30T14:55:58.808Z,96658.06
2022-10-30T14:58:28.607Z,96656.25
2022-10-30T15:01:22.891Z,96658.16
2022-10-30T15:03:57.008Z,96659.00
2022-10-30T15:06:31.533Z,96658.16
2022-10-30T15:09:14.861Z,96658.00
2022-10-30T15:11:57.997Z,96662.47
2022-10-30T15:14:48.441Z,96663.00
2022-10-30T15:17:25.577Z,96656.88
2022-10-30T15:19:53.913Z,96655.56
2022-10-30T15:22:24.628Z,96652.63
2022-10-30T15:24:53.033Z,96658.56
2022-10-30T15:27:23.632Z,96649.81
2022-10-30T15:29:55.136Z,96652.69
2022-10-30T15:32:24.535Z,96649.72
2022-10-30T15:34:59.995Z,96653.09
2022-10-30T15:37:29.733Z,96655.06
2022-10-30T15:40:22.080Z,96651.50
2022-10-30T15:42:52.310Z,96649.34
2022-10-30T15:45:22.762Z,96650.25
2022-10-30T15:47:53.426Z,96647.47
2022-10-30T15:50:21.832Z,96659.25
2022-10-30T15:52:54.061Z,96655.56
2022-10-30T15:55:27.212Z,96655.34
2022-10-30T15:58:03.342Z,96662.84
2022-10-30T16:00:41.595Z,96655.94
2022-10-30T16:03:18.398Z,96659.34
2022-10-30T16:05:46.810Z,96652.97
2022-10-30T16:08:20.669Z,96654.66
2022-10-30T16:10:50.228Z,96661.78
2022-10-30T16:13:21.101Z,96656.94
2022-10-30T16:15:50.221Z,96655.84
2022-10-30T16:18:21.324Z,96659.31
2022-10-30T16:20:52.028Z,96670.00
2022-10-30T16:23:22.022Z,96664.84
2022-10-30T16:25:55.304Z,96663.13
2022-10-30T16:28:29.628Z,96660.34
2022-10-30T16:30:58.887Z,96666.00
2022-10-30T16:33:28.630Z,96662.25
2022-10-30T16:35:57.198Z,96663.44
2022-10-30T16:38:29.492Z,96671.00
2022-10-30T16:40:57.899Z,96674.59
2022-10-30T16:43:29.168Z,96673.16
2022-10-30T16:45:58.848Z,96665.16
2022-10-30T16:48:30.214Z,96671.22
2022-10-30T16:51:02.689Z,96671.41
2022-10-30T16:53:32.662Z,96669.00
2022-10-30T16:56:01.216Z,96677.28
2022-10-30T16:58:31.595Z,96680.94
2022-10-30T17:01:04.475Z,96676.97
2022-10-30T17:03:37.531Z,96682.94
2022-10-30T17:06:08.568Z,96691.56
2022-10-30T17:08:43.982Z,96693.00
2022-10-30T17:11:19.925Z,96690.22
2022-10-30T17:14:02.198Z,96699.09
2022-10-30T17:16:32.027Z,96697.25
2022-10-30T17:19:01.927Z,96702.00
2022-10-30T17:21:33.862Z,96698.94
2022-10-30T17:24:03.531Z,96704.38
2022-10-30T17:26:37.383Z,96703.50
2022-10-30T17:29:05.855Z,96704.00
2022-10-30T17:31:44.802Z,96711.00
2022-10-30T17:34:18.497Z,96712.88
2022-10-30T17:36:47.553Z,96714.13
2022-10-30T17:39:17.455Z,96716.22
2022-10-30T17:41:46.215Z,96709.00
2022-10-30T17:44:19.836Z,96718.28
2022-10-30T17:46:48.376Z,96713.16
2022-10-30T17:49:25.997Z,96713.34
2022-10-30T17:51:54.481Z,96721.22
2022-10-30T17:54:24.318Z,96715.84
2022-10-30T17:56:52.735Z,96724.75
2022-10-30T17:59:21.066Z,96717.31
2022-10-30T18:01:49.931Z,96724.69
2022-10-30T18:04:21.480Z,96728.63
2022-10-30T18:06:50.482Z,96728.00
2022-10-30T18:09:18.842Z,96731.72
2022-10-30T18:11:48.535Z,96720.59
2022-10-30T18:14:17.517Z,96729.63
2022-10-30T18:16:45.888Z,96727.38
2022-10-30T18:19:14.233Z,96734.34
2022-10-30T18:21:42.563Z,96732.66
2022-10-30T18:24:12.738Z,96733.94
2022-10-30T18:26:41.290Z,96740.56
2022-10-30T18:29:11.689Z,96731.88
2022-10-30T18:31:40.532Z,96736.50
2022-10-30T18:34:13.033Z,96744.97
2022-10-30T18:36:41.279Z,96740.22
2022-10-30T18:39:10.963Z,96738.38
2022-10-30T18:41:42.009Z,96744.72
2022-10-30T18:44:15.113Z,96738.25
2022-10-30T18:46:43.687Z,96740.47
2022-10-30T18:49:12.165Z,96743.53
2022-10-30T18:51:40.606Z,96741.59
2022-10-30T18:54:13.234Z,96741.81
2022-10-30T18:56:41.554Z,96745.28
2022-10-30T18:59:09.998Z,96743.63
2022-10-30T19:01:40.012Z,96748.63
2022-10-30T19:04:10.700Z,96756.09
2022-10-30T19:06:39.059Z,96746.78
2022-10-30T19:09:07.818Z,96749.34
2022-10-30T19:11:37.373Z,96744.00
2022-10-30T19:14:06.888Z,96750.66
2022-10-30T19:16:35.070Z,96749.28
2022-10-30T19:19:04.778Z,96759.41
2022-10-30T19:21:34.568Z,96746.97
2022-10-30T19:24:03.829Z,96752.09
2022-10-30T19:26:32.171Z,96750.41
2022-10-30T19:29:00.584Z,96752.63
2022-10-30T19:31:29.213Z,96748.09
2022-10-30T19:33:57.736Z,96745.81
2022-10-30T19:36:29.838Z,96745.44
2022-10-30T19:38:58.457Z,96746.78
2022-10-30T19:41:27.048Z,96742.25
2022-10-30T19:43:55.598Z,96744.22
2022-10-30T19:46:23.966Z,96746.97
2022-10-30T19:48:57.575Z,96740.72
2022-10-30T19:51:29.000Z,96748.22
2022-10-30T19:53:57.700Z,96741.03
2022-10-30T19:56:26.028Z,96741.63
2022-10-30T19:58:54.340Z,96745.38
2022-10-30T20:01:23.055Z,96749.53
2022-10-30T20:03:51.624Z,96753.13
2022-10-30T20:06:21.364Z,96742.00
2022-10-30T20:08:51.752Z,96740.28
2022-10-30T20:11:20.085Z,96748.56
2022-10-30T20:13:50.738Z,96745.22
2022-10-30T20:16:22.092Z,96748.34
2022-10-30T20:18:50.856Z,96753.25
2022-10-30T20:21:20.788Z,96752.94
2022-10-30T20:23:49.101Z,96753.66
2022-10-30T20:26:24.716Z,96754.53
2022-10-30T20:28:53.457Z,96750.09
2022-10-30T20:31:21.747Z,96760.59
2022-10-30T20:33:50.083Z,96755.91
2022-10-30T20:36:18.462Z,96755.06
2022-10-30T20:38:46.786Z,96756.34
2022-10-30T20:41:23.136Z,96758.50
2022-10-30T20:43:51.889Z,96765.13
2022-10-30T20:46:20.390Z,96758.91
2022-10-30T20:48:48.804Z,96765.59
2022-10-30T20:51:17.166Z,96763.66
2022-10-30T20:53:45.505Z,96766.97
2022-10-30T20:56:13.938Z,96769.78
2022-10-30T20:58:43.897Z,96762.97
2022-10-30T21:01:13.706Z,96764.72
2022-10-30T21:03:42.119Z,96771.72
2022-10-30T21:06:10.446Z,96777.78
2022-10-30T21:08:38.839Z,96785.25
2022-10-30T21:11:08.177Z,96775.41
2022-10-30T21:13:37.006Z,96780.03
2022-10-30T21:16:09.330Z,96787.34
2022-10-30T21:18:37.949Z,96788.91
2022-10-30T21:21:08.141Z,96783.69
2022-10-30T21:23:36.416Z,96796.72
2022-10-30T21:26:06.731Z,96780.91
2022-10-30T21:28:35.113Z,96785.53
2022-10-30T21:31:03.857Z,96788.16
2022-10-30T21:33:34.268Z,96777.34
2022-10-30T21:36:11.669Z,96770.75
2022-10-30T21:38:42.863Z,96773.72
2022-10-30T21:41:12.253Z,96773.28
2022-10-30T21:43:40.862Z,96773.69
2022-10-30T21:46:09.947Z,96772.00
2022-10-30T21:48:39.946Z,96769.69
2022-10-30T21:51:10.012Z,96766.16
2022-10-30T21:53:38.583Z,96768.38
2022-10-30T21:56:08.671Z,96767.03
2022-10-30T21:58:37.420Z,96769.66
2022-10-30T22:01:06.890Z,96771.53
2022-10-30T22:03:35.593Z,96782.88
2022-10-30T22:06:11.877Z,96777.97
2022-10-30T22:08:40.627Z,96776.63
2022-10-30T22:11:12.059Z,96782.75
2022-10-30T22:13:40.490Z,96776.84
2022-10-30T22:16:11.396Z,96778.63
2022-10-30T22:18:39.788Z,96782.13
2022-10-30T22:21:11.734Z,96774.31
2022-10-30T22:23:40.648Z,96779.13
2022-10-30T22:26:12.143Z,96783.75
2022-10-30T22:28:40.492Z,96778.34
2022-10-30T22:31:10.471Z,96777.06
2022-10-30T22:33:38.847Z,96781.63
2022-10-30T22:36:10.260Z,96778.22
2022-10-30T22:38:38.627Z,96772.06
2022-10-30T22:41:11.589Z,96778.88
2022-10-30T22:43:40.191Z,96778.25
2022-10-30T22:46:08.820Z,96778.69
2022-10-30T22:48:37.241Z,96777.63
2022-10-30T22:51:10.559Z,96779.94
2022-10-30T22:53:45.074Z,96776.09
2022-10-30T22:56:15.685Z,96777.00
2022-10-30T22:58:43.944Z,96785.03
2022-10-30T23:01:13.639Z,96784.28
2022-10-30T23:03:42.230Z,96786.69
2022-10-30T23:06:10.977Z,96785.66
2022-10-30T23:08:39.532Z,96784.84
2022-10-30T23:11:09.363Z,96782.78
2022-10-30T23:13:38.241Z,96777.00
2022-10-30T23:16:08.839Z,96778.97
2022-10-30T23:18:36.953Z,96781.84
2022-10-30T23:21:07.353Z,96779.78
2022-10-30T23:23:36.999Z,96781.69
2022-10-30T23:26:07.356Z,96781.03
2022-10-30T23:28:37.227Z,96776.53
2022-10-30T23:31:06.367Z,96782.06
2022-10-30T23:33:34.859Z,96777.13
2022-10-30T23:36:04.309Z,96779.06
2022-10-30T23:38:32.648Z,96782.25
2022-10-30T23:41:00.976Z,96781.31
2022-10-30T23:43:29.341Z,96776.50
2022-10-30T23:45:59.082Z,96777.00
2022-10-30T23:48:27.454Z,96781.47
2022-10-30T23:50:55.772Z,96778.47
2022-10-30T23:53:24.056Z,96779.94
2022-10-30T23:55:53.082Z,96781.44
2022-10-30T23:58:21.733Z,96772.44
